sensor_id;sensor_type;location;lat;lon;timestamp;pressure;altitude;pressure_sealevel;temperature;humidity
44872;BME280;30602;51.060;17.226;2023-12-07T00:01:08;101722.90;;;-1.49;100.00
44872;BME280;30602;51.060;17.226;2023-12-07T00:05:18;101723.24;;;-1.47;100.00
44872;BME280;30602;51.060;17.226;2023-12-07T00:12:51;101730.73;;;-1.49;100.00
44872;BME280;30602;51.060;17.226;2023-12-07T00:16:12;101728.60;;;-1.56;100.00
44872;BME280;30602;51.060;17.226;2023-12-07T00:21:14;101734.55;;;-1.58;100.00
44872;BME280;30602;51.060;17.226;2023-12-07T00:24:42;101731.30;;;-1.55;100.00
44872;BME280;30602;51.060;17.226;2023-12-07T00:28:33;101733.85;;;-1.55;100.00
44872;BME280;30602;51.060;17.226;2023-12-07T00:32:00;101728.95;;;-1.57;100.00
44872;BME280;30602;51.060;17.226;2023-12-07T00:36:08;101730.54;;;-1.57;100.00
44872;BME280;30602;51.060;17.226;2023-12-07T00:44:11;101737.83;;;-1.54;100.00
44872;BME280;30602;51.060;17.226;2023-12-07T00:48:08;101741.09;;;-1.56;100.00
44872;BME280;30602;51.060;17.226;2023-12-07T00:52:25;101741.61;;;-1.51;100.00
44872;BME280;30602;51.060;17.226;2023-12-07T00:56:43;101744.68;;;-1.53;100.00
44872;BME280;30602;51.060;17.226;2023-12-07T01:00:44;101746.26;;;-1.56;100.00
44872;BME280;30602;51.060;17.226;2023-12-07T01:04:09;101747.28;;;-1.60;100.00
44872;BME280;30602;51.060;17.226;2023-12-07T01:07:53;101748.37;;;-1.62;100.00
44872;BME280;30602;51.060;17.226;2023-12-07T01:11:22;101750.29;;;-1.61;100.00
44872;BME280;30602;51.060;17.226;2023-12-07T01:14:50;101753.84;;;-1.62;100.00
44872;BME280;30602;51.060;17.226;2023-12-07T01:19:07;101756.46;;;-1.63;100.00
44872;BME280;30602;51.060;17.226;2023-12-07T01:22:56;101753.29;;;-1.65;100.00
44872;BME280;30602;51.060;17.226;2023-12-07T01:26:44;101764.97;;;-1.63;100.00
44872;BME280;30602;51.060;17.226;2023-12-07T01:30:35;101770.27;;;-1.58;100.00
44872;BME280;30602;51.060;17.226;2023-12-07T01:34:59;101769.45;;;-1.54;100.00
44872;BME280;30602;51.060;17.226;2023-12-07T01:39:17;101769.63;;;-1.53;100.00
44872;BME280;30602;51.060;17.226;2023-12-07T01:43:19;101769.27;;;-1.58;100.00
44872;BME280;30602;51.060;17.226;2023-12-07T01:47:02;101774.51;;;-1.56;100.00
44872;BME280;30602;51.060;17.226;2023-12-07T01:50:42;101777.72;;;-1.62;100.00
44872;BME280;30602;51.060;17.226;2023-12-07T01:59:01;101767.64;;;-1.62;100.00
44872;BME280;30602;51.060;17.226;2023-12-07T02:03:04;101762.59;;;-1.65;100.00
44872;BME280;30602;51.060;17.226;2023-12-07T02:06:55;101771.89;;;-1.69;100.00
44872;BME280;30602;51.060;17.226;2023-12-07T02:11:51;101778.24;;;-1.66;100.00
44872;BME280;30602;51.060;17.226;2023-12-07T02:15:58;101772.04;;;-1.68;100.00
44872;BME280;30602;51.060;17.226;2023-12-07T02:24:12;101789.78;;;-1.56;100.00
44872;BME280;30602;51.060;17.226;2023-12-07T02:28:09;101795.45;;;-1.60;100.00
44872;BME280;30602;51.060;17.226;2023-12-07T02:31:37;101801.24;;;-1.67;100.00
44872;BME280;30602;51.060;17.226;2023-12-07T02:35:28;101798.07;;;-1.64;100.00
44872;BME280;30602;51.060;17.226;2023-12-07T02:39:16;101799.72;;;-1.68;100.00
44872;BME280;30602;51.060;17.226;2023-12-07T02:43:02;101802.59;;;-1.65;100.00
44872;BME280;30602;51.060;17.226;2023-12-07T02:47:01;101801.56;;;-1.64;100.00
44872;BME280;30602;51.060;17.226;2023-12-07T02:50:26;101804.60;;;-1.65;100.00
44872;BME280;30602;51.060;17.226;2023-12-07T02:54:36;101808.03;;;-1.65;100.00
44872;BME280;30602;51.060;17.226;2023-12-07T02:57:59;101807.15;;;-1.66;100.00
44872;BME280;30602;51.060;17.226;2023-12-07T03:02:39;101812.24;;;-1.69;100.00
44872;BME280;30602;51.060;17.226;2023-12-07T03:06:32;101817.68;;;-1.68;100.00
44872;BME280;30602;51.060;17.226;2023-12-07T03:09:57;101816.39;;;-1.61;100.00
44872;BME280;30602;51.060;17.226;2023-12-07T03:13:38;101821.08;;;-1.58;100.00
44872;BME280;30602;51.060;17.226;2023-12-07T03:17:43;101816.13;;;-1.58;100.00
44872;BME280;30602;51.060;17.226;2023-12-07T03:21:34;101822.09;;;-1.58;100.00
44872;BME280;30602;51.060;17.226;2023-12-07T03:25:05;101824.95;;;-1.59;100.00
44872;BME280;30602;51.060;17.226;2023-12-07T03:29:06;101820.63;;;-1.67;100.00
44872;BME280;30602;51.060;17.226;2023-12-07T03:32:36;101834.24;;;-1.64;100.00
44872;BME280;30602;51.060;17.226;2023-12-07T03:36:54;101834.88;;;-1.62;100.00
44872;BME280;30602;51.060;17.226;2023-12-07T03:41:12;101834.84;;;-1.57;100.00
44872;BME280;30602;51.060;17.226;2023-12-07T03:45:15;101846.62;;;-1.61;100.00
44872;BME280;30602;51.060;17.226;2023-12-07T03:49:39;101853.34;;;-1.58;100.00
44872;BME280;30602;51.060;17.226;2023-12-07T03:53:04;101858.66;;;-1.63;100.00
44872;BME280;30602;51.060;17.226;2023-12-07T03:57:08;101861.41;;;-1.64;100.00
44872;BME280;30602;51.060;17.226;2023-12-07T04:01:28;101861.23;;;-1.58;100.00
44872;BME280;30602;51.060;17.226;2023-12-07T04:06:17;101863.08;;;-1.56;100.00
44872;BME280;30602;51.060;17.226;2023-12-07T04:09:48;101868.41;;;-1.57;100.00
44872;BME280;30602;51.060;17.226;2023-12-07T04:13:55;101857.66;;;-1.63;100.00
44872;BME280;30602;51.060;17.226;2023-12-07T04:17:55;101874.48;;;-1.58;100.00
44872;BME280;30602;51.060;17.226;2023-12-07T04:21:59;101875.82;;;-1.56;100.00
44872;BME280;30602;51.060;17.226;2023-12-07T04:26:08;101876.41;;;-1.57;100.00
44872;BME280;30602;51.060;17.226;2023-12-07T04:29:31;101874.90;;;-1.64;100.00
44872;BME280;30602;51.060;17.226;2023-12-07T04:33:49;101873.87;;;-1.68;100.00
44872;BME280;30602;51.060;17.226;2023-12-07T04:37:50;101874.82;;;-1.66;100.00
44872;BME280;30602;51.060;17.226;2023-12-07T04:41:30;101876.10;;;-1.64;100.00
44872;BME280;30602;51.060;17.226;2023-12-07T04:45:35;101871.13;;;-1.72;100.00
44872;BME280;30602;51.060;17.226;2023-12-07T04:53:38;101881.85;;;-1.65;100.00
44872;BME280;30602;51.060;17.226;2023-12-07T04:58:08;101879.46;;;-1.58;100.00
44872;BME280;30602;51.060;17.226;2023-12-07T05:02:04;101885.41;;;-1.52;100.00
44872;BME280;30602;51.060;17.226;2023-12-07T05:06:25;101888.77;;;-1.52;100.00
44872;BME280;30602;51.060;17.226;2023-12-07T05:10:32;101891.67;;;-1.57;100.00
44872;BME280;30602;51.060;17.226;2023-12-07T05:14:38;101899.57;;;-1.52;100.00
44872;BME280;30602;51.060;17.226;2023-12-07T05:18:25;101909.60;;;-1.56;100.00
44872;BME280;30602;51.060;17.226;2023-12-07T05:22:17;101908.86;;;-1.61;100.00
44872;BME280;30602;51.060;17.226;2023-12-07T05:30:14;101901.23;;;-1.75;100.00
44872;BME280;30602;51.060;17.226;2023-12-07T05:33:44;101924.13;;;-1.64;100.00
44872;BME280;30602;51.060;17.226;2023-12-07T05:37:12;101925.09;;;-1.65;100.00
44872;BME280;30602;51.060;17.226;2023-12-07T05:40:54;101931.48;;;-1.64;100.00
44872;BME280;30602;51.060;17.226;2023-12-07T05:44:40;101928.73;;;-1.64;100.00
44872;BME280;30602;51.060;17.226;2023-12-07T05:48:43;101931.19;;;-1.69;100.00
44872;BME280;30602;51.060;17.226;2023-12-07T05:52:34;101935.43;;;-1.61;100.00
44872;BME280;30602;51.060;17.226;2023-12-07T05:56:24;101934.61;;;-1.61;100.00
44872;BME280;30602;51.060;17.226;2023-12-07T05:59:56;101932.46;;;-1.65;100.00
44872;BME280;30602;51.060;17.226;2023-12-07T06:03:36;101938.33;;;-1.66;100.00
44872;BME280;30602;51.060;17.226;2023-12-07T06:07:29;101941.55;;;-1.69;100.00
44872;BME280;30602;51.060;17.226;2023-12-07T06:11:17;101942.13;;;-1.70;100.00
44872;BME280;30602;51.060;17.226;2023-12-07T06:15:19;101933.37;;;-1.79;100.00
44872;BME280;30602;51.060;17.226;2023-12-07T06:18:45;101961.17;;;-1.71;100.00
44872;BME280;30602;51.060;17.226;2023-12-07T06:22:23;101959.89;;;-1.69;100.00
44872;BME280;30602;51.060;17.226;2023-12-07T06:26:52;101964.61;;;-1.70;100.00
44872;BME280;30602;51.060;17.226;2023-12-07T06:30:40;101971.72;;;-1.69;100.00
44872;BME280;30602;51.060;17.226;2023-12-07T06:34:25;101973.42;;;-1.66;100.00
44872;BME280;30602;51.060;17.226;2023-12-07T06:38:19;101979.48;;;-1.70;100.00
44872;BME280;30602;51.060;17.226;2023-12-07T06:42:25;101974.48;;;-1.63;100.00
44872;BME280;30602;51.060;17.226;2023-12-07T06:46:16;101967.98;;;-1.76;100.00
44872;BME280;30602;51.060;17.226;2023-12-07T06:50:20;101991.00;;;-1.69;100.00
44872;BME280;30602;51.060;17.226;2023-12-07T06:54:13;101975.10;;;-1.75;100.00
44872;BME280;30602;51.060;17.226;2023-12-07T06:57:44;101994.09;;;-1.61;100.00
44872;BME280;30602;51.060;17.226;2023-12-07T07:01:11;101996.34;;;-1.61;100.00
44872;BME280;30602;51.060;17.226;2023-12-07T07:05:51;101983.81;;;-1.69;100.00
44872;BME280;30602;51.060;17.226;2023-12-07T07:09:20;101998.68;;;-1.53;100.00
44872;BME280;30602;51.060;17.226;2023-12-07T07:13:12;102001.36;;;-1.56;100.00
44872;BME280;30602;51.060;17.226;2023-12-07T07:17:13;102009.81;;;-1.53;100.00
44872;BME280;30602;51.060;17.226;2023-12-07T07:21:20;102012.40;;;-1.56;100.00
44872;BME280;30602;51.060;17.226;2023-12-07T07:25:09;102008.99;;;-1.55;100.00
44872;BME280;30602;51.060;17.226;2023-12-07T07:28:33;102008.25;;;-1.53;100.00
44872;BME280;30602;51.060;17.226;2023-12-07T07:32:16;102008.58;;;-1.53;100.00
44872;BME280;30602;51.060;17.226;2023-12-07T07:35:54;102017.23;;;-1.52;100.00
44872;BME280;30602;51.060;17.226;2023-12-07T07:39:24;102018.60;;;-1.55;100.00
44872;BME280;30602;51.060;17.226;2023-12-07T07:42:52;102016.78;;;-1.57;100.00
44872;BME280;30602;51.060;17.226;2023-12-07T07:46:47;102018.01;;;-1.51;100.00
44872;BME280;30602;51.060;17.226;2023-12-07T07:50:53;102019.09;;;-1.49;100.00
44872;BME280;30602;51.060;17.226;2023-12-07T07:54:39;102025.12;;;-1.48;100.00
44872;BME280;30602;51.060;17.226;2023-12-07T07:58:58;102030.43;;;-1.50;100.00
44872;BME280;30602;51.060;17.226;2023-12-07T08:03:08;102035.68;;;-1.48;100.00
44872;BME280;30602;51.060;17.226;2023-12-07T08:06:46;102030.84;;;-1.48;100.00
44872;BME280;30602;51.060;17.226;2023-12-07T08:10:16;102031.84;;;-1.45;100.00
44872;BME280;30602;51.060;17.226;2023-12-07T08:13:40;102031.69;;;-1.47;100.00
44872;BME280;30602;51.060;17.226;2023-12-07T08:17:22;102037.30;;;-1.47;100.00
44872;BME280;30602;51.060;17.226;2023-12-07T08:21:42;102043.86;;;-1.44;100.00
44872;BME280;30602;51.060;17.226;2023-12-07T08:26:06;102042.62;;;-1.43;100.00
44872;BME280;30602;51.060;17.226;2023-12-07T08:29:37;102048.27;;;-1.42;100.00
44872;BME280;30602;51.060;17.226;2023-12-07T08:33:05;102048.98;;;-1.47;100.00
44872;BME280;30602;51.060;17.226;2023-12-07T08:37:37;102055.94;;;-1.45;100.00
44872;BME280;30602;51.060;17.226;2023-12-07T08:41:35;102058.02;;;-1.43;100.00
44872;BME280;30602;51.060;17.226;2023-12-07T08:45:03;102056.70;;;-1.44;100.00
44872;BME280;30602;51.060;17.226;2023-12-07T08:48:42;102059.63;;;-1.41;100.00
44872;BME280;30602;51.060;17.226;2023-12-07T08:52:15;102057.41;;;-1.37;100.00
44872;BME280;30602;51.060;17.226;2023-12-07T08:56:19;102058.27;;;-1.39;100.00
44872;BME280;30602;51.060;17.226;2023-12-07T09:00:02;102058.84;;;-1.37;100.00
44872;BME280;30602;51.060;17.226;2023-12-07T09:03:32;102052.13;;;-1.37;100.00
44872;BME280;30602;51.060;17.226;2023-12-07T09:07:04;102053.35;;;-1.29;100.00
44872;BME280;30602;51.060;17.226;2023-12-07T09:10:49;102048.41;;;-1.28;100.00
44872;BME280;30602;51.060;17.226;2023-12-07T09:14:23;102046.38;;;-1.24;100.00
44872;BME280;30602;51.060;17.226;2023-12-07T09:18:49;102054.20;;;-1.23;100.00
44872;BME280;30602;51.060;17.226;2023-12-07T09:22:20;102042.52;;;-1.28;100.00
44872;BME280;30602;51.060;17.226;2023-12-07T09:25:48;102056.54;;;-1.24;100.00
44872;BME280;30602;51.060;17.226;2023-12-07T09:29:39;102057.85;;;-1.24;100.00
44872;BME280;30602;51.060;17.226;2023-12-07T09:33:52;102052.33;;;-1.20;100.00
44872;BME280;30602;51.060;17.226;2023-12-07T09:37:14;102053.27;;;-1.13;100.00
44872;BME280;30602;51.060;17.226;2023-12-07T09:41:04;102054.30;;;-1.07;100.00
44872;BME280;30602;51.060;17.226;2023-12-07T09:44:34;102044.48;;;-1.10;100.00
44872;BME280;30602;51.060;17.226;2023-12-07T09:48:05;102046.48;;;-1.02;100.00
44872;BME280;30602;51.060;17.226;2023-12-07T09:51:36;102039.93;;;-1.02;100.00
44872;BME280;30602;51.060;17.226;2023-12-07T09:55:52;102042.43;;;-0.99;100.00
44872;BME280;30602;51.060;17.226;2023-12-07T09:59:46;102030.27;;;-0.97;100.00
44872;BME280;30602;51.060;17.226;2023-12-07T10:07:34;102044.07;;;-0.84;100.00
44872;BME280;30602;51.060;17.226;2023-12-07T10:11:06;102046.08;;;-0.81;100.00
44872;BME280;30602;51.060;17.226;2023-12-07T10:14:34;102043.91;;;-0.83;100.00
44872;BME280;30602;51.060;17.226;2023-12-07T10:18:05;102042.08;;;-0.82;100.00
44872;BME280;30602;51.060;17.226;2023-12-07T10:22:13;102049.30;;;-0.82;100.00
44872;BME280;30602;51.060;17.226;2023-12-07T10:25:48;102042.80;;;-0.72;100.00
44872;BME280;30602;51.060;17.226;2023-12-07T10:29:47;102044.77;;;-0.74;100.00
44872;BME280;30602;51.060;17.226;2023-12-07T10:33:40;102042.57;;;-0.77;100.00
44872;BME280;30602;51.060;17.226;2023-12-07T10:37:30;102041.92;;;-0.76;100.00
44872;BME280;30602;51.060;17.226;2023-12-07T10:41:43;102039.81;;;-0.70;100.00
44872;BME280;30602;51.060;17.226;2023-12-07T10:45:34;102038.20;;;-0.63;100.00
44872;BME280;30602;51.060;17.226;2023-12-07T10:49:41;102043.66;;;-0.60;100.00
44872;BME280;30602;51.060;17.226;2023-12-07T10:53:42;102046.63;;;-0.56;100.00
44872;BME280;30602;51.060;17.226;2023-12-07T10:57:30;102043.03;;;-0.52;100.00
44872;BME280;30602;51.060;17.226;2023-12-07T11:01:56;102045.60;;;-0.55;100.00
44872;BME280;30602;51.060;17.226;2023-12-07T11:06:12;102050.09;;;-0.50;100.00
44872;BME280;30602;51.060;17.226;2023-12-07T11:09:44;102045.51;;;-0.51;100.00
44872;BME280;30602;51.060;17.226;2023-12-07T11:13:36;102040.18;;;-0.55;100.00
44872;BME280;30602;51.060;17.226;2023-12-07T11:17:11;102035.62;;;-0.54;100.00
44872;BME280;30602;51.060;17.226;2023-12-07T11:20:57;102037.21;;;-0.53;100.00
44872;BME280;30602;51.060;17.226;2023-12-07T11:24:52;102029.40;;;-0.50;100.00
44872;BME280;30602;51.060;17.226;2023-12-07T11:28:57;102034.80;;;-0.38;100.00
44872;BME280;30602;51.060;17.226;2023-12-07T11:32:27;102033.04;;;-0.32;100.00
44872;BME280;30602;51.060;17.226;2023-12-07T11:36:26;102037.23;;;-0.36;100.00
44872;BME280;30602;51.060;17.226;2023-12-07T11:40:11;102036.87;;;-0.37;100.00
44872;BME280;30602;51.060;17.226;2023-12-07T11:43:41;102031.42;;;-0.33;100.00
44872;BME280;30602;51.060;17.226;2023-12-07T11:51:59;102030.86;;;-0.27;100.00
44872;BME280;30602;51.060;17.226;2023-12-07T11:55:56;102028.53;;;-0.30;100.00
44872;BME280;30602;51.060;17.226;2023-12-07T12:00:28;102026.06;;;-0.25;100.00
44872;BME280;30602;51.060;17.226;2023-12-07T12:03:55;102025.73;;;-0.19;100.00
44872;BME280;30602;51.060;17.226;2023-12-07T12:07:25;102031.81;;;-0.23;100.00
44872;BME280;30602;51.060;17.226;2023-12-07T12:11:12;102033.84;;;-0.20;100.00
44872;BME280;30602;51.060;17.226;2023-12-07T12:15:14;102037.95;;;-0.16;100.00
44872;BME280;30602;51.060;17.226;2023-12-07T12:19:08;102031.52;;;-0.16;100.00
44872;BME280;30602;51.060;17.226;2023-12-07T12:22:50;102035.12;;;-0.12;100.00
44872;BME280;30602;51.060;17.226;2023-12-07T12:26:24;102035.84;;;-0.13;100.00
44872;BME280;30602;51.060;17.226;2023-12-07T12:30:36;102036.68;;;-0.14;100.00
44872;BME280;30602;51.060;17.226;2023-12-07T12:34:59;102035.67;;;-0.16;100.00
44872;BME280;30602;51.060;17.226;2023-12-07T12:39:11;102032.94;;;-0.09;100.00
44872;BME280;30602;51.060;17.226;2023-12-07T12:43:26;102032.59;;;-0.10;100.00
44872;BME280;30602;51.060;17.226;2023-12-07T12:47:07;102033.65;;;-0.06;100.00
44872;BME280;30602;51.060;17.226;2023-12-07T12:51:14;102032.38;;;-0.04;100.00
44872;BME280;30602;51.060;17.226;2023-12-07T12:54:43;102025.02;;;-0.05;100.00
44872;BME280;30602;51.060;17.226;2023-12-07T12:58:34;102019.30;;;-0.12;100.00
44872;BME280;30602;51.060;17.226;2023-12-07T13:02:24;102025.84;;;-0.03;100.00
44872;BME280;30602;51.060;17.226;2023-12-07T13:06:11;102025.66;;;0.01;100.00
44872;BME280;30602;51.060;17.226;2023-12-07T13:10:21;102031.47;;;-0.01;100.00
44872;BME280;30602;51.060;17.226;2023-12-07T13:14:11;102030.69;;;0.02;100.00
44872;BME280;30602;51.060;17.226;2023-12-07T13:18:01;102025.51;;;0.03;100.00
44872;BME280;30602;51.060;17.226;2023-12-07T13:22:13;102031.09;;;0.03;100.00
44872;BME280;30602;51.060;17.226;2023-12-07T13:25:40;102034.08;;;0.04;100.00
44872;BME280;30602;51.060;17.226;2023-12-07T13:29:32;102036.71;;;0.02;100.00
44872;BME280;30602;51.060;17.226;2023-12-07T13:33:25;102036.98;;;0.05;100.00
44872;BME280;30602;51.060;17.226;2023-12-07T13:37:20;102039.73;;;0.04;100.00
44872;BME280;30602;51.060;17.226;2023-12-07T13:40:48;102045.70;;;0.04;100.00
44872;BME280;30602;51.060;17.226;2023-12-07T13:44:14;102053.41;;;-0.01;100.00
44872;BME280;30602;51.060;17.226;2023-12-07T13:48:19;102052.45;;;-0.05;100.00
44872;BME280;30602;51.060;17.226;2023-12-07T13:52:13;102056.53;;;0.01;100.00
44872;BME280;30602;51.060;17.226;2023-12-07T13:56:09;102047.39;;;0.02;100.00
44872;BME280;30602;51.060;17.226;2023-12-07T13:59:45;102049.27;;;0.02;100.00
44872;BME280;30602;51.060;17.226;2023-12-07T14:03:36;102048.42;;;0.05;100.00
44872;BME280;30602;51.060;17.226;2023-12-07T14:07:39;102045.96;;;0.08;100.00
44872;BME280;30602;51.060;17.226;2023-12-07T14:11:01;102046.98;;;0.11;100.00
44872;BME280;30602;51.060;17.226;2023-12-07T14:14:30;102053.14;;;0.03;100.00
44872;BME280;30602;51.060;17.226;2023-12-07T14:18:36;102061.19;;;0.04;100.00
44872;BME280;30602;51.060;17.226;2023-12-07T14:22:18;102067.77;;;0.04;100.00
44872;BME280;30602;51.060;17.226;2023-12-07T14:26:19;102071.83;;;0.06;100.00
44872;BME280;30602;51.060;17.226;2023-12-07T14:30:14;102072.20;;;0.04;100.00
44872;BME280;30602;51.060;17.226;2023-12-07T14:33:47;102069.73;;;0.05;100.00
44872;BME280;30602;51.060;17.226;2023-12-07T14:37:34;102059.73;;;-0.05;100.00
44872;BME280;30602;51.060;17.226;2023-12-07T14:41:24;102068.70;;;0.04;100.00
44872;BME280;30602;51.060;17.226;2023-12-07T14:45:22;102072.86;;;0.05;100.00
44872;BME280;30602;51.060;17.226;2023-12-07T14:48:54;102077.08;;;0.05;100.00
44872;BME280;30602;51.060;17.226;2023-12-07T14:52:21;102089.39;;;0.03;100.00
44872;BME280;30602;51.060;17.226;2023-12-07T14:55:59;102089.96;;;-0.02;100.00
44872;BME280;30602;51.060;17.226;2023-12-07T15:00:05;102087.59;;;-0.03;100.00
44872;BME280;30602;51.060;17.226;2023-12-07T15:04:02;102086.00;;;0.00;100.00
44872;BME280;30602;51.060;17.226;2023-12-07T15:07:56;102085.45;;;0.02;100.00
44872;BME280;30602;51.060;17.226;2023-12-07T15:11:24;102086.98;;;0.02;100.00
44872;BME280;30602;51.060;17.226;2023-12-07T15:15:30;102095.51;;;0.03;100.00
44872;BME280;30602;51.060;17.226;2023-12-07T15:19:03;102094.48;;;0.00;100.00
44872;BME280;30602;51.060;17.226;2023-12-07T15:23:06;102098.14;;;-0.01;100.00
44872;BME280;30602;51.060;17.226;2023-12-07T15:27:02;102096.27;;;-0.04;100.00
44872;BME280;30602;51.060;17.226;2023-12-07T15:30:46;102096.84;;;-0.03;100.00
44872;BME280;30602;51.060;17.226;2023-12-07T15:34:18;102097.05;;;-0.04;100.00
44872;BME280;30602;51.060;17.226;2023-12-07T15:37:51;102093.24;;;-0.09;100.00
44872;BME280;30602;51.060;17.226;2023-12-07T15:41:51;102088.30;;;-0.10;100.00
44872;BME280;30602;51.060;17.226;2023-12-07T15:45:21;102089.46;;;-0.08;100.00
44872;BME280;30602;51.060;17.226;2023-12-07T15:49:08;102083.48;;;-0.09;100.00
44872;BME280;30602;51.060;17.226;2023-12-07T15:52:27;102082.95;;;-0.13;100.00
44872;BME280;30602;51.060;17.226;2023-12-07T15:56:15;102088.02;;;-0.12;100.00
44872;BME280;30602;51.060;17.226;2023-12-07T15:59:41;102095.84;;;-0.16;100.00
44872;BME280;30602;51.060;17.226;2023-12-07T16:03:28;102100.70;;;-0.18;100.00
44872;BME280;30602;51.060;17.226;2023-12-07T16:07:33;102087.03;;;-0.26;100.00
44872;BME280;30602;51.060;17.226;2023-12-07T16:11:18;102099.93;;;-0.19;100.00
44872;BME280;30602;51.060;17.226;2023-12-07T16:15:27;102086.13;;;-0.26;100.00
44872;BME280;30602;51.060;17.226;2023-12-07T16:19:28;102096.53;;;-0.16;100.00
44872;BME280;30602;51.060;17.226;2023-12-07T16:23:17;102094.90;;;-0.17;100.00
44872;BME280;30602;51.060;17.226;2023-12-07T16:27:10;102089.55;;;-0.19;100.00
44872;BME280;30602;51.060;17.226;2023-12-07T16:31:23;102089.91;;;-0.23;100.00
44872;BME280;30602;51.060;17.226;2023-12-07T16:35:17;102090.05;;;-0.25;100.00
44872;BME280;30602;51.060;17.226;2023-12-07T16:39:06;102086.17;;;-0.27;100.00
44872;BME280;30602;51.060;17.226;2023-12-07T16:42:54;102089.62;;;-0.25;100.00
44872;BME280;30602;51.060;17.226;2023-12-07T16:46:24;102091.19;;;-0.26;100.00
44872;BME280;30602;51.060;17.226;2023-12-07T16:50:11;102098.67;;;-0.30;100.00
44872;BME280;30602;51.060;17.226;2023-12-07T16:53:47;102102.92;;;-0.36;100.00
44872;BME280;30602;51.060;17.226;2023-12-07T16:57:42;102105.79;;;-0.42;100.00
44872;BME280;30602;51.060;17.226;2023-12-07T17:05:29;102112.83;;;-0.43;100.00
44872;BME280;30602;51.060;17.226;2023-12-07T17:08:57;102114.40;;;-0.45;100.00
44872;BME280;30602;51.060;17.226;2023-12-07T17:13:34;102119.58;;;-0.38;100.00
44872;BME280;30602;51.060;17.226;2023-12-07T17:17:15;102117.08;;;-0.33;100.00
44872;BME280;30602;51.060;17.226;2023-12-07T17:21:01;102116.35;;;-0.34;100.00
44872;BME280;30602;51.060;17.226;2023-12-07T17:24:38;102102.07;;;-0.45;100.00
44872;BME280;30602;51.060;17.226;2023-12-07T17:28:57;102116.31;;;-0.34;100.00
44872;BME280;30602;51.060;17.226;2023-12-07T17:32:45;102115.98;;;-0.37;100.00
44872;BME280;30602;51.060;17.226;2023-12-07T17:36:40;102121.05;;;-0.39;100.00
44872;BME280;30602;51.060;17.226;2023-12-07T17:40:08;102120.34;;;-0.42;100.00
44872;BME280;30602;51.060;17.226;2023-12-07T17:44:14;102102.84;;;-0.50;100.00
44872;BME280;30602;51.060;17.226;2023-12-07T17:48:29;102119.34;;;-0.46;100.00
44872;BME280;30602;51.060;17.226;2023-12-07T17:52:00;102117.97;;;-0.46;100.00
44872;BME280;30602;51.060;17.226;2023-12-07T17:55:27;102117.15;;;-0.46;100.00
44872;BME280;30602;51.060;17.226;2023-12-07T18:03:40;102116.42;;;-0.40;100.00
44872;BME280;30602;51.060;17.226;2023-12-07T18:07:42;102109.30;;;-0.35;100.00
44872;BME280;30602;51.060;17.226;2023-12-07T18:11:22;102110.22;;;-0.36;100.00
44872;BME280;30602;51.060;17.226;2023-12-07T18:14:55;102113.17;;;-0.30;100.00
44872;BME280;30602;51.060;17.226;2023-12-07T18:23:19;102102.89;;;-0.37;100.00
44872;BME280;30602;51.060;17.226;2023-12-07T18:27:30;102113.63;;;-0.33;100.00
44872;BME280;30602;51.060;17.226;2023-12-07T18:31:14;102118.34;;;-0.29;100.00
44872;BME280;30602;51.060;17.226;2023-12-07T18:35:15;102118.89;;;-0.30;100.00
44872;BME280;30602;51.060;17.226;2023-12-07T18:39:07;102118.24;;;-0.29;100.00
44872;BME280;30602;51.060;17.226;2023-12-07T18:42:38;102117.04;;;-0.33;100.00
44872;BME280;30602;51.060;17.226;2023-12-07T18:46:40;102122.64;;;-0.37;100.00
44872;BME280;30602;51.060;17.226;2023-12-07T18:50:36;102124.87;;;-0.37;100.00
44872;BME280;30602;51.060;17.226;2023-12-07T18:54:02;102121.87;;;-0.36;100.00
44872;BME280;30602;51.060;17.226;2023-12-07T18:57:53;102119.31;;;-0.37;100.00
44872;BME280;30602;51.060;17.226;2023-12-07T19:01:50;102120.64;;;-0.37;100.00
44872;BME280;30602;51.060;17.226;2023-12-07T19:06:13;102119.56;;;-0.40;100.00
44872;BME280;30602;51.060;17.226;2023-12-07T19:09:49;102122.61;;;-0.37;100.00
44872;BME280;30602;51.060;17.226;2023-12-07T19:13:13;102124.36;;;-0.36;100.00
44872;BME280;30602;51.060;17.226;2023-12-07T19:17:06;102117.46;;;-0.39;100.00
44872;BME280;30602;51.060;17.226;2023-12-07T19:20:32;102126.16;;;-0.36;100.00
44872;BME280;30602;51.060;17.226;2023-12-07T19:24:18;102127.21;;;-0.37;100.00
44872;BME280;30602;51.060;17.226;2023-12-07T19:28:17;102129.33;;;-0.39;100.00
44872;BME280;30602;51.060;17.226;2023-12-07T19:32:15;102131.35;;;-0.42;100.00
44872;BME280;30602;51.060;17.226;2023-12-07T19:36:41;102139.94;;;-0.39;100.00
44872;BME280;30602;51.060;17.226;2023-12-07T19:40:12;102146.91;;;-0.38;100.00
44872;BME280;30602;51.060;17.226;2023-12-07T19:44:16;102153.77;;;-0.37;100.00
44872;BME280;30602;51.060;17.226;2023-12-07T19:48:16;102153.09;;;-0.38;100.00
44872;BME280;30602;51.060;17.226;2023-12-07T19:52:46;102150.55;;;-0.40;100.00
44872;BME280;30602;51.060;17.226;2023-12-07T19:56:18;102157.14;;;-0.38;100.00
44872;BME280;30602;51.060;17.226;2023-12-07T20:00:09;102156.11;;;-0.41;100.00
44872;BME280;30602;51.060;17.226;2023-12-07T20:03:40;102140.81;;;-0.48;100.00
44872;BME280;30602;51.060;17.226;2023-12-07T20:07:33;102147.96;;;-0.45;100.00
44872;BME280;30602;51.060;17.226;2023-12-07T20:11:16;102144.75;;;-0.41;100.00
44872;BME280;30602;51.060;17.226;2023-12-07T20:14:45;102141.66;;;-0.44;100.00
44872;BME280;30602;51.060;17.226;2023-12-07T20:18:11;102137.39;;;-0.47;100.00
44872;BME280;30602;51.060;17.226;2023-12-07T20:21:43;102144.10;;;-0.51;100.00